createdAt,value
2022-09-30T00:01:10.743Z,8.66
2022-09-30T00:03:14.558Z,8.82
2022-09-30T00:05:17.878Z,8.88
2022-09-30T00:07:21.249Z,8.95
2022-09-30T00:09:26.481Z,8.95
2022-09-30T00:11:32.432Z,9.02
2022-09-30T00:13:39.134Z,9.02
2022-09-30T00:15:47.296Z,9.07
2022-09-30T00:17:50.783Z,9.14
2022-09-30T00:19:54.064Z,9.03
2022-09-30T00:21:57.357Z,8.80
2022-09-30T00:24:01.350Z,8.66
2022-09-30T00:26:08.204Z,8.61
2022-09-30T00:28:11.634Z,8.81
2022-09-30T00:30:15.226Z,8.84
2022-09-30T00:32:18.613Z,8.83
2022-09-30T00:34:22.002Z,8.82
2022-09-30T00:36:25.402Z,8.86
2022-09-30T00:38:29.365Z,8.87
2022-09-30T00:40:33.195Z,8.86
2022-09-30T00:42:41.577Z,8.92
2022-09-30T00:44:51.679Z,8.60
2022-09-30T00:46:58.834Z,8.76
2022-09-30T00:49:06.798Z,8.82
2022-09-30T00:51:11.319Z,8.75
2022-09-30T00:53:19.674Z,8.59
2022-09-30T00:55:31.743Z,8.41
2022-09-30T00:57:35.941Z,8.23
2022-09-30T00:59:43.800Z,8.13
2022-09-30T01:01:47.160Z,8.06
2022-09-30T01:03:54.863Z,7.80
2022-09-30T01:05:58.319Z,7.78
2022-09-30T01:08:04.631Z,7.62
2022-09-30T01:10:08.784Z,7.55
2022-09-30T01:12:17.457Z,7.54
2022-09-30T01:14:24.537Z,7.52
2022-09-30T01:16:47.916Z,7.53
2022-09-30T01:19:06.035Z,7.54
2022-09-30T01:21:39.533Z,7.49
2022-09-30T01:24:02.775Z,7.51
2022-09-30T01:26:45.542Z,7.46
2022-09-30T01:29:19.712Z,7.55
2022-09-30T01:31:36.189Z,7.76
2022-09-30T01:33:53.488Z,7.76
2022-09-30T01:36:10.707Z,7.67
2022-09-30T01:38:19.725Z,7.65
2022-09-30T01:40:30.948Z,7.62
2022-09-30T01:42:42.595Z,7.45
2022-09-30T01:44:55.417Z,7.35
2022-09-30T01:47:08.839Z,7.30
2022-09-30T01:49:20.609Z,7.21
2022-09-30T01:51:33.639Z,7.27
2022-09-30T01:53:41.920Z,7.27
2022-09-30T01:55:51.899Z,7.24
2022-09-30T01:58:00.463Z,7.23
2022-09-30T02:00:07.761Z,7.22
2022-09-30T02:02:20.361Z,7.31
2022-09-30T02:04:27.666Z,7.28
2022-09-30T02:06:38.186Z,7.20
2022-09-30T02:08:47.914Z,7.14
2022-09-30T02:10:57.126Z,7.11
2022-09-30T02:13:09.555Z,7.06
2022-09-30T02:15:16.110Z,6.97
2022-09-30T02:17:24.409Z,6.96
2022-09-30T02:19:35.033Z,6.93
2022-09-30T02:21:41.953Z,6.97
2022-09-30T02:23:48.716Z,6.91
2022-09-30T02:25:57.143Z,6.94
2022-09-30T02:28:05.214Z,7.09
2022-09-30T02:30:10.310Z,7.25
2022-09-30T02:32:21.916Z,7.26
2022-09-30T02:34:30.283Z,7.20
2022-09-30T02:36:38.833Z,7.27
2022-09-30T02:38:45.892Z,7.38
2022-09-30T02:40:54.767Z,7.48
2022-09-30T02:42:58.581Z,7.51
2022-09-30T02:45:05.842Z,7.34
2022-09-30T02:47:16.430Z,7.17
2022-09-30T02:49:27.201Z,7.11
2022-09-30T02:51:41.663Z,7.12
2022-09-30T02:53:52.399Z,7.19
2022-09-30T02:56:10.325Z,7.09
2022-09-30T02:58:17.892Z,6.97
2022-09-30T03:00:21.161Z,6.85
2022-09-30T03:02:24.696Z,6.77
2022-09-30T03:04:32.608Z,6.71
2022-09-30T03:06:38.612Z,6.82
2022-09-30T03:08:43.223Z,6.91
2022-09-30T03:10:50.787Z,6.89
2022-09-30T03:13:13.884Z,6.84
2022-09-30T03:15:32.404Z,6.77
2022-09-30T03:18:00.121Z,6.70
2022-09-30T03:20:27.628Z,6.90
2022-09-30T03:22:48.538Z,7.05
2022-09-30T03:25:09.567Z,7.24
2022-09-30T03:27:24.827Z,7.32
2022-09-30T03:29:36.795Z,7.17
2022-09-30T03:31:50.767Z,7.00
2022-09-30T03:33:59.239Z,6.89
2022-09-30T03:36:07.682Z,6.89
2022-09-30T03:38:16.684Z,6.77
2022-09-30T03:40:28.483Z,6.60
2022-09-30T03:42:39.392Z,6.55
2022-09-30T03:44:47.599Z,6.37
2022-09-30T03:46:54.847Z,6.36
2022-09-30T03:49:02.965Z,6.38
2022-09-30T03:51:08.605Z,6.44
2022-09-30T03:53:14.658Z,6.59
2022-09-30T03:55:19.554Z,6.77
2022-09-30T03:57:23.161Z,6.77
2022-09-30T03:59:28.518Z,6.65
2022-09-30T04:01:31.883Z,6.50
2022-09-30T04:03:35.478Z,6.42
2022-09-30T04:05:38.840Z,6.50
2022-09-30T04:07:42.157Z,6.50
2022-09-30T04:09:46.961Z,6.49
2022-09-30T04:11:50.304Z,6.47
2022-09-30T04:13:53.652Z,6.41
2022-09-30T04:15:56.980Z,6.37
2022-09-30T04:18:00.399Z,6.40
2022-09-30T04:20:03.817Z,6.42
2022-09-30T04:22:08.097Z,6.25
2022-09-30T04:24:11.787Z,6.48
2022-09-30T04:26:19.797Z,6.58
2022-09-30T04:28:23.798Z,6.70
2022-09-30T04:30:31.300Z,6.87
2022-09-30T04:32:36.713Z,6.96
2022-09-30T04:34:40.025Z,7.03
2022-09-30T04:36:43.509Z,6.59
2022-09-30T04:38:46.832Z,6.82
2022-09-30T04:40:50.605Z,6.67
2022-09-30T04:42:58.196Z,6.58
2022-09-30T04:45:02.612Z,6.48
2022-09-30T04:47:06.701Z,6.43
2022-09-30T04:49:10.213Z,6.42
2022-09-30T04:51:14.033Z,6.34
2022-09-30T04:53:18.155Z,6.38
2022-09-30T04:55:21.447Z,6.49
2022-09-30T04:57:24.914Z,6.64
2022-09-30T04:59:29.619Z,6.74
2022-09-30T05:01:33.234Z,6.71
2022-09-30T05:03:37.123Z,6.62
2022-09-30T05:05:40.690Z,6.48
2022-09-30T05:07:44.055Z,6.42
2022-09-30T05:09:47.606Z,6.34
2022-09-30T05:11:50.947Z,6.30
2022-09-30T05:13:54.354Z,6.36
2022-09-30T05:15:59.195Z,6.54
2022-09-30T05:18:02.686Z,6.61
2022-09-30T05:20:10.754Z,6.71
2022-09-30T05:22:14.360Z,6.79
2022-09-30T05:24:17.854Z,6.82
2022-09-30T05:26:21.205Z,6.93
2022-09-30T05:28:25.900Z,7.03
2022-09-30T05:30:29.707Z,7.10
2022-09-30T05:32:34.767Z,7.12
2022-09-30T05:34:38.998Z,6.75
2022-09-30T05:36:42.293Z,7.07
2022-09-30T05:38:45.659Z,7.00
2022-09-30T05:40:49.098Z,6.97
2022-09-30T05:42:52.399Z,7.04
2022-09-30T05:44:55.728Z,7.10
2022-09-30T05:46:59.698Z,7.09
2022-09-30T05:49:05.153Z,7.18
2022-09-30T05:51:09.430Z,7.26
2022-09-30T05:53:12.798Z,7.27
2022-09-30T05:55:16.393Z,7.22
2022-09-30T05:57:20.997Z,7.11
2022-09-30T05:59:24.351Z,6.99
2022-09-30T06:01:27.939Z,7.05
2022-09-30T06:03:31.295Z,7.17
2022-09-30T06:05:36.097Z,7.26
2022-09-30T06:07:40.268Z,7.11
2022-09-30T06:09:43.980Z,6.89
2022-09-30T06:11:47.911Z,6.99
2022-09-30T06:13:51.648Z,7.04
2022-09-30T06:15:58.694Z,7.01
2022-09-30T06:18:02.088Z,7.07
2022-09-30T06:20:06.239Z,7.16
2022-09-30T06:22:10.977Z,7.03
2022-09-30T06:24:14.944Z,7.12
2022-09-30T06:26:18.466Z,6.66
2022-09-30T06:28:22.029Z,7.00
2022-09-30T06:30:25.789Z,6.93
2022-09-30T06:32:30.219Z,6.98
2022-09-30T06:34:33.678Z,7.10
2022-09-30T06:36:37.124Z,7.24
2022-09-30T06:38:41.959Z,7.23
2022-09-30T06:40:49.520Z,7.14
2022-09-30T06:42:52.995Z,7.15
2022-09-30T06:44:57.246Z,7.13
2022-09-30T06:47:00.683Z,7.07
2022-09-30T06:49:12.972Z,7.01
2022-09-30T06:51:17.038Z,6.98
2022-09-30T06:53:20.568Z,7.00
2022-09-30T06:55:26.988Z,7.22
2022-09-30T06:57:30.252Z,7.45
2022-09-30T06:59:33.544Z,7.58
2022-09-30T07:01:38.405Z,7.55
2022-09-30T07:03:44.307Z,7.55
2022-09-30T07:05:47.636Z,7.52
2022-09-30T07:07:53.231Z,7.58
2022-09-30T07:09:59.652Z,7.57
2022-09-30T07:12:06.305Z,7.63
2022-09-30T07:14:10.172Z,7.75
2022-09-30T07:16:14.089Z,7.94
2022-09-30T07:18:20.739Z,8.02
2022-09-30T07:20:24.328Z,8.13
2022-09-30T07:22:31.925Z,8.09
2022-09-30T07:24:35.345Z,8.17
2022-09-30T07:26:40.157Z,8.28
2022-09-30T07:28:45.756Z,8.18
2022-09-30T07:30:49.193Z,8.16
2022-09-30T07:32:53.498Z,8.07
2022-09-30T07:34:57.724Z,8.30
2022-09-30T07:37:01.448Z,8.23
2022-09-30T07:39:07.459Z,8.28
2022-09-30T07:41:12.972Z,8.31
2022-09-30T07:43:19.088Z,8.28
2022-09-30T07:45:23.851Z,8.31
2022-09-30T07:47:27.399Z,8.41
2022-09-30T07:49:31.614Z,8.48
2022-09-30T07:51:37.318Z,8.52
2022-09-30T07:53:41.372Z,8.56
2022-09-30T07:55:44.770Z,8.66
2022-09-30T07:57:49.953Z,8.62
2022-09-30T07:59:53.315Z,8.69
2022-09-30T08:01:58.041Z,8.76
2022-09-30T08:04:07.078Z,8.95
2022-09-30T08:06:12.328Z,8.98
2022-09-30T08:08:17.996Z,8.98
2022-09-30T08:10:21.414Z,9.10
2022-09-30T08:12:24.864Z,9.14
2022-09-30T08:14:29.038Z,9.05
2022-09-30T08:16:32.896Z,9.10
2022-09-30T08:18:37.740Z,9.30
2022-09-30T08:20:42.024Z,9.28
2022-09-30T08:22:46.044Z,9.31
2022-09-30T08:24:49.393Z,9.46
2022-09-30T08:26:53.718Z,9.49
2022-09-30T08:28:57.121Z,9.60
2022-09-30T08:31:08.434Z,9.75
2022-09-30T08:33:11.754Z,9.83
2022-09-30T08:35:16.769Z,9.90
2022-09-30T08:37:20.185Z,10.02
2022-09-30T08:39:23.475Z,10.09
2022-09-30T08:41:55.209Z,10.21
2022-09-30T08:44:12.461Z,10.23
2022-09-30T08:46:28.336Z,10.30
2022-09-30T08:48:45.927Z,10.40
2022-09-30T08:51:01.887Z,10.53
2022-09-30T08:53:23.411Z,10.54
2022-09-30T08:55:32.502Z,10.61
2022-09-30T08:57:42.847Z,10.63
2022-09-30T08:59:53.634Z,10.61
2022-09-30T09:02:12.897Z,10.77
2022-09-30T09:04:19.946Z,10.94
2022-09-30T09:06:31.909Z,10.96
2022-09-30T09:08:51.755Z,11.06
2022-09-30T09:11:01.801Z,11.16
2022-09-30T09:13:17.385Z,11.10
2022-09-30T09:15:53.503Z,11.23
2022-09-30T09:18:24.968Z,11.21
2022-09-30T09:20:33.855Z,11.40
2022-09-30T09:22:39.167Z,11.50
2022-09-30T09:24:47.258Z,11.56
2022-09-30T09:26:52.282Z,11.64
2022-09-30T09:29:09.641Z,11.75
2022-09-30T09:31:17.175Z,11.83
2022-09-30T09:33:23.182Z,12.04
2022-09-30T09:35:37.502Z,11.97
2022-09-30T09:38:08.846Z,11.95
2022-09-30T09:40:19.285Z,12.13
2022-09-30T09:44:57.074Z,12.44
2022-09-30T09:47:05.639Z,12.47
2022-09-30T09:49:29.372Z,12.74
2022-09-30T09:51:37.252Z,12.88
2022-09-30T09:53:52.225Z,12.86
2022-09-30T09:55:59.249Z,13.03
2022-09-30T09:58:13.875Z,13.15
2022-09-30T10:00:53.910Z,13.24
2022-09-30T10:03:03.815Z,13.26
2022-09-30T10:05:11.654Z,13.37
2022-09-30T10:07:16.284Z,13.40
2022-09-30T10:09:30.215Z,13.40
2022-09-30T10:11:33.505Z,13.57
2022-09-30T10:13:44.252Z,13.74
2022-09-30T10:15:48.585Z,13.91
2022-09-30T10:17:54.121Z,13.96
2022-09-30T10:20:04.843Z,14.26
2022-09-30T10:22:20.547Z,14.64
2022-09-30T10:24:31.729Z,14.81
2022-09-30T10:26:48.452Z,14.56
2022-09-30T10:28:54.383Z,14.65
2022-09-30T10:31:02.246Z,14.93
2022-09-30T10:33:15.296Z,14.99
2022-09-30T10:35:23.742Z,14.95
2022-09-30T10:37:27.191Z,15.13
2022-09-30T10:39:35.444Z,15.34
2022-09-30T10:41:39.732Z,15.61
2022-09-30T10:43:45.191Z,15.48
2022-09-30T10:46:01.487Z,15.55
2022-09-30T10:48:19.652Z,15.79
2022-09-30T10:50:25.121Z,15.71
2022-09-30T10:52:30.448Z,15.93
2022-09-30T10:54:53.789Z,16.25
2022-09-30T10:56:57.113Z,16.46
2022-09-30T10:59:03.131Z,16.34
2022-09-30T11:01:17.630Z,16.38
2022-09-30T11:03:25.668Z,16.75
2022-09-30T11:05:31.822Z,16.91
2022-09-30T11:07:42.821Z,16.81
2022-09-30T11:09:54.854Z,16.81
2022-09-30T11:12:03.946Z,16.84
2022-09-30T11:14:21.709Z,16.74
2022-09-30T11:16:32.354Z,16.91
2022-09-30T11:18:39.418Z,17.53
2022-09-30T11:20:46.856Z,17.53
2022-09-30T11:22:57.550Z,17.81
2022-09-30T11:25:04.300Z,18.02
2022-09-30T11:27:19.331Z,18.28
2022-09-30T11:29:40.971Z,18.23
2022-09-30T11:31:51.557Z,18.01
2022-09-30T11:34:10.363Z,17.78
2022-09-30T11:36:26.088Z,17.55
2022-09-30T11:38:50.447Z,17.21
2022-09-30T11:41:05.310Z,17.38
2022-09-30T11:43:25.900Z,17.88
2022-09-30T11:45:40.185Z,17.11
2022-09-30T11:48:01.441Z,17.27
2022-09-30T11:50:20.034Z,17.45
2022-09-30T11:52:32.126Z,17.23
2022-09-30T11:54:55.826Z,17.62
2022-09-30T11:57:06.318Z,17.52
2022-09-30T11:59:18.342Z,16.91
2022-09-30T12:01:26.514Z,17.39
2022-09-30T12:03:35.693Z,17.96
2022-09-30T12:05:43.157Z,18.27
2022-09-30T12:07:50.981Z,18.31
2022-09-30T12:10:00.188Z,18.62
2022-09-30T12:12:15.283Z,18.70
2022-09-30T12:14:27.331Z,18.92
2022-09-30T12:16:34.269Z,19.22
2022-09-30T12:18:43.101Z,19.19
2022-09-30T12:20:50.591Z,19.05
2022-09-30T12:22:58.950Z,18.79
2022-09-30T12:25:12.835Z,18.89
2022-09-30T12:27:24.625Z,18.78
2022-09-30T12:29:50.937Z,18.58
2022-09-30T12:32:11.679Z,19.14
2022-09-30T12:34:29.468Z,18.70
2022-09-30T12:36:57.540Z,18.60
2022-09-30T12:39:52.176Z,18.46
2022-09-30T12:42:11.806Z,19.05
2022-09-30T12:44:55.239Z,19.14
2022-09-30T12:47:13.795Z,18.95
2022-09-30T12:49:23.535Z,18.44
2022-09-30T12:51:31.662Z,19.08
2022-09-30T12:53:37.943Z,19.52
2022-09-30T12:55:43.255Z,19.44
2022-09-30T12:57:48.361Z,19.02
2022-09-30T12:59:56.827Z,18.68
2022-09-30T13:02:02.471Z,18.89
2022-09-30T13:04:18.549Z,18.40
2022-09-30T13:06:23.141Z,18.21
2022-09-30T13:08:43.181Z,18.05
2022-09-30T13:10:48.219Z,17.84
2022-09-30T13:13:17.838Z,18.76
2022-09-30T13:15:45.023Z,19.59
2022-09-30T13:17:48.435Z,19.93
2022-09-30T13:19:53.797Z,19.97
2022-09-30T13:22:51.588Z,19.90
2022-09-30T13:25:12.484Z,20.43
2022-09-30T13:27:16.481Z,20.69
2022-09-30T13:29:38.313Z,20.41
2022-09-30T13:32:09.627Z,20.24
2022-09-30T13:34:22.336Z,20.00
2022-09-30T13:36:30.217Z,19.91
2022-09-30T13:38:37.110Z,20.04
2022-09-30T13:41:01.140Z,20.07
2022-09-30T13:43:05.569Z,19.91
2022-09-30T13:45:16.728Z,19.95
2022-09-30T13:47:29.043Z,20.25
2022-09-30T13:49:42.466Z,19.66
2022-09-30T13:51:46.017Z,18.88
2022-09-30T13:53:52.407Z,18.64
2022-09-30T13:56:00.167Z,18.21
2022-09-30T13:58:17.323Z,17.98
2022-09-30T14:00:24.473Z,18.65
2022-09-30T14:02:47.454Z,18.48
2022-09-30T14:05:20.442Z,18.42
2022-09-30T14:07:40.052Z,18.66
2022-09-30T14:10:09.566Z,19.41
2022-09-30T14:12:44.120Z,19.96
2022-09-30T14:15:06.509Z,20.59
2022-09-30T14:17:30.075Z,20.66
2022-09-30T14:19:57.804Z,21.29
2022-09-30T14:22:05.571Z,20.79
2022-09-30T14:24:13.184Z,20.97
2022-09-30T14:26:38.670Z,19.73
2022-09-30T14:28:53.817Z,19.21
2022-09-30T14:31:13.171Z,18.79
2022-09-30T14:33:25.215Z,18.81
2022-09-30T14:35:31.268Z,18.33
2022-09-30T14:37:39.633Z,18.61
2022-09-30T14:39:43.175Z,19.42
2022-09-30T14:41:51.731Z,20.40
2022-09-30T14:44:00.181Z,20.44
2022-09-30T14:46:07.978Z,20.70
2022-09-30T14:48:15.876Z,20.51
2022-09-30T14:50:23.012Z,20.00
2022-09-30T14:52:38.291Z,20.19
2022-09-30T14:54:48.575Z,20.24
2022-09-30T14:56:54.438Z,20.08
2022-09-30T14:59:00.892Z,19.96
2022-09-30T15:01:07.834Z,19.85
2022-09-30T15:03:13.818Z,19.53
2022-09-30T15:05:18.761Z,19.90
2022-09-30T15:07:22.063Z,20.03
2022-09-30T15:09:29.490Z,19.97
2022-09-30T15:11:38.757Z,20.04
2022-09-30T15:13:43.352Z,19.78
2022-09-30T15:15:48.113Z,19.60
2022-09-30T15:17:54.527Z,19.67
2022-09-30T15:19:59.516Z,19.79
2022-09-30T15:22:05.932Z,19.53
2022-09-30T15:24:12.179Z,19.42
2022-09-30T15:26:16.592Z,19.76
2022-09-30T15:28:23.404Z,19.56
2022-09-30T15:30:29.344Z,19.01
2022-09-30T15:32:36.500Z,18.90
2022-09-30T15:34:40.620Z,18.89
2022-09-30T15:36:47.004Z,18.66
2022-09-30T15:38:52.894Z,19.11
2022-09-30T15:40:59.852Z,19.40
2022-09-30T15:43:06.489Z,19.10
2022-09-30T15:45:34.606Z,18.76
2022-09-30T15:47:56.181Z,19.50
2022-09-30T15:50:00.402Z,19.49
2022-09-30T15:52:27.899Z,19.44
2022-09-30T15:54:37.703Z,19.03
2022-09-30T15:56:41.206Z,19.04
2022-09-30T15:58:56.024Z,18.79
2022-09-30T16:01:16.553Z,18.79
2022-09-30T16:03:28.826Z,18.64
2022-09-30T16:05:32.974Z,18.40
2022-09-30T16:07:36.269Z,18.27
2022-09-30T16:09:41.616Z,18.25
2022-09-30T16:11:48.689Z,18.25
2022-09-30T16:13:52.811Z,18.24
2022-09-30T16:15:58.177Z,18.01
2022-09-30T16:18:01.749Z,17.96
2022-09-30T16:20:09.382Z,17.84
2022-09-30T16:22:35.460Z,17.61
2022-09-30T16:24:47.508Z,17.59
2022-09-30T16:26:51.713Z,17.48
2022-09-30T16:28:55.894Z,17.38
2022-09-30T16:30:59.222Z,17.43
2022-09-30T16:33:06.251Z,17.43
2022-09-30T16:35:18.260Z,17.51
2022-09-30T16:37:22.218Z,17.61
2022-09-30T16:39:25.565Z,17.69
2022-09-30T16:41:28.928Z,17.70
2022-09-30T16:43:32.456Z,17.77
2022-09-30T16:45:36.596Z,17.77
2022-09-30T16:47:40.024Z,17.75
2022-09-30T16:49:44.009Z,17.77
2022-09-30T16:51:48.671Z,17.74
2022-09-30T16:53:52.005Z,17.54
2022-09-30T16:55:57.918Z,17.34
2022-09-30T16:58:01.215Z,17.42
2022-09-30T17:00:05.528Z,17.39
2022-09-30T17:02:14.717Z,17.32
2022-09-30T17:04:18.075Z,17.32
2022-09-30T17:06:26.760Z,17.28
2022-09-30T17:08:32.002Z,17.21
2022-09-30T17:10:35.868Z,17.21
2022-09-30T17:12:39.754Z,16.90
2022-09-30T17:14:43.829Z,17.22
2022-09-30T17:16:47.699Z,17.12
2022-09-30T17:18:51.307Z,17.22
2022-09-30T17:20:55.826Z,17.13
2022-09-30T17:23:01.700Z,17.20
2022-09-30T17:25:11.003Z,17.18
2022-09-30T17:27:14.329Z,17.18
2022-09-30T17:29:32.086Z,17.15
2022-09-30T17:31:36.254Z,17.16
2022-09-30T17:33:41.970Z,17.08
2022-09-30T17:35:45.276Z,17.17
2022-09-30T17:37:48.648Z,17.15
2022-09-30T17:39:51.923Z,17.14
2022-09-30T17:42:14.111Z,17.05
2022-09-30T17:44:17.416Z,17.02
2022-09-30T17:46:23.500Z,17.05
2022-09-30T17:48:27.217Z,16.88
2022-09-30T17:50:30.861Z,16.71
2022-09-30T17:52:34.686Z,16.71
2022-09-30T17:54:37.958Z,16.64
2022-09-30T17:56:43.062Z,16.56
2022-09-30T17:58:50.434Z,16.42
2022-09-30T18:00:53.851Z,16.56
2022-09-30T18:02:57.439Z,16.62
2022-09-30T18:05:00.887Z,16.45
2022-09-30T18:07:04.189Z,16.26
2022-09-30T18:09:08.747Z,16.12
2022-09-30T18:11:12.324Z,16.16
2022-09-30T18:13:15.672Z,16.07
2022-09-30T18:15:21.273Z,16.06
2022-09-30T18:17:25.372Z,15.83
2022-09-30T18:19:28.758Z,15.83
2022-09-30T18:21:32.852Z,15.76
2022-09-30T18:23:36.467Z,15.72
2022-09-30T18:25:43.067Z,15.62
2022-09-30T18:27:46.910Z,15.51
2022-09-30T18:29:50.530Z,15.37
2022-09-30T18:31:56.530Z,15.37
2022-09-30T18:33:59.884Z,15.39
2022-09-30T18:36:04.596Z,15.41
2022-09-30T18:38:07.963Z,15.40
2022-09-30T18:40:12.192Z,15.28
2022-09-30T18:42:15.822Z,15.21
2022-09-30T18:44:19.108Z,15.26
2022-09-30T18:46:22.587Z,15.22
2022-09-30T18:48:27.503Z,15.16
2022-09-30T18:50:32.711Z,15.12
2022-09-30T18:52:36.025Z,14.93
2022-09-30T18:54:39.496Z,14.95
2022-09-30T18:56:44.212Z,14.87
2022-09-30T18:58:49.854Z,14.98
2022-09-30T19:00:53.485Z,14.77
2022-09-30T19:02:57.851Z,14.76
2022-09-30T19:05:02.536Z,14.78
2022-09-30T19:07:05.863Z,14.78
2022-09-30T19:09:09.218Z,14.32
2022-09-30T19:11:16.044Z,14.65
2022-09-30T19:13:19.392Z,14.59
2022-09-30T19:15:23.548Z,14.55
2022-09-30T19:17:26.945Z,14.49
2022-09-30T19:19:30.324Z,14.44
2022-09-30T19:21:36.236Z,14.42
2022-09-30T19:23:40.432Z,14.39
2022-09-30T19:25:43.866Z,14.42
2022-09-30T19:27:49.448Z,14.30
2022-09-30T19:29:58.538Z,14.16
2022-09-30T19:32:03.246Z,14.37
2022-09-30T19:34:07.180Z,14.37
2022-09-30T19:36:14.728Z,14.26
2022-09-30T19:38:28.851Z,14.28
2022-09-30T19:40:35.678Z,14.25
2022-09-30T19:42:38.960Z,14.21
2022-09-30T19:44:42.821Z,14.07
2022-09-30T19:46:47.050Z,14.04
2022-09-30T19:48:50.527Z,13.91
2022-09-30T19:51:02.221Z,13.99
2022-09-30T19:53:05.619Z,13.76
2022-09-30T19:55:16.265Z,14.13
2022-09-30T19:57:20.328Z,14.01
2022-09-30T19:59:24.015Z,13.95
2022-09-30T20:01:29.347Z,13.96
2022-09-30T20:03:32.842Z,13.96
2022-09-30T20:05:36.153Z,14.05
2022-09-30T20:07:39.742Z,13.96
2022-09-30T20:09:43.662Z,13.98
2022-09-30T20:11:48.300Z,13.91
2022-09-30T20:14:12.529Z,13.95
2022-09-30T20:16:16.157Z,13.89
2022-09-30T20:18:20.207Z,13.85
2022-09-30T20:20:35.497Z,13.89
2022-09-30T20:22:38.843Z,13.84
2022-09-30T20:24:42.157Z,13.55
2022-09-30T20:26:46.909Z,13.60
2022-09-30T20:28:56.272Z,13.86
2022-09-30T20:30:59.646Z,13.81
2022-09-30T20:33:02.990Z,13.72
2022-09-30T20:35:08.115Z,13.69
2022-09-30T20:37:11.424Z,13.68
2022-09-30T20:39:14.783Z,13.62
2022-09-30T20:41:18.462Z,13.62
2022-09-30T20:43:21.855Z,13.57
2022-09-30T20:45:27.987Z,13.51
2022-09-30T20:47:31.563Z,13.39
2022-09-30T20:49:34.878Z,13.50
2022-09-30T20:51:38.523Z,13.47
2022-09-30T20:53:48.132Z,13.44
2022-09-30T20:55:52.492Z,13.40
2022-09-30T20:57:55.835Z,13.50
2022-09-30T21:00:00.070Z,13.40
2022-09-30T21:02:06.957Z,13.31
2022-09-30T21:04:10.549Z,13.25
2022-09-30T21:06:14.077Z,13.34
2022-09-30T21:08:17.400Z,12.63
2022-09-30T21:10:21.175Z,13.22
2022-09-30T21:12:24.577Z,13.23
2022-09-30T21:14:27.869Z,13.30
2022-09-30T21:16:31.683Z,13.23
2022-09-30T21:18:36.678Z,13.14
2022-09-30T21:20:39.988Z,13.18
2022-09-30T21:22:43.835Z,13.18
2022-09-30T21:24:47.755Z,13.11
2022-09-30T21:26:51.071Z,13.10
2022-09-30T21:28:54.860Z,12.97
2022-09-30T21:30:58.359Z,12.94
2022-09-30T21:33:01.736Z,12.82
2022-09-30T21:35:07.267Z,12.96
2022-09-30T21:37:11.481Z,13.04
2022-09-30T21:39:15.623Z,13.05
2022-09-30T21:41:19.812Z,13.01
2022-09-30T21:43:23.142Z,12.92
2022-09-30T21:45:27.391Z,12.94
2022-09-30T21:47:30.779Z,13.01
2022-09-30T21:49:34.064Z,12.63
2022-09-30T21:51:38.700Z,12.96
2022-09-30T21:53:43.368Z,12.83
2022-09-30T21:55:48.199Z,12.89
2022-09-30T21:57:51.595Z,12.92
2022-09-30T21:59:55.010Z,12.82
2022-09-30T22:01:58.399Z,12.86
2022-09-30T22:04:02.053Z,12.84
2022-09-30T22:06:08.132Z,12.88
2022-09-30T22:08:13.017Z,12.76
2022-09-30T22:10:16.946Z,12.74
2022-09-30T22:12:20.278Z,12.72
2022-09-30T22:14:23.603Z,12.68
2022-09-30T22:16:29.711Z,12.66
2022-09-30T22:18:34.084Z,12.61
2022-09-30T22:20:37.506Z,12.65
2022-09-30T22:22:41.470Z,12.61
2022-09-30T22:24:47.096Z,12.61
2022-09-30T22:26:51.132Z,12.56
2022-09-30T22:28:57.121Z,12.53
2022-09-30T22:31:09.989Z,12.49
2022-09-30T22:33:30.860Z,12.49
2022-09-30T22:35:51.566Z,12.49
2022-09-30T22:38:12.255Z,12.51
2022-09-30T22:40:17.497Z,12.56
2022-09-30T22:42:20.810Z,12.53
2022-09-30T22:44:25.799Z,12.54
2022-09-30T22:46:29.883Z,12.49
2022-09-30T22:48:33.537Z,12.48
2022-09-30T22:50:36.956Z,12.48
2022-09-30T22:52:40.298Z,12.53
2022-09-30T22:54:44.167Z,12.52
2022-09-30T22:56:50.360Z,12.52
2022-09-30T22:58:54.089Z,12.55
2022-09-30T23:00:58.747Z,12.57
2022-09-30T23:03:03.605Z,12.55
2022-09-30T23:05:08.342Z,12.56
2022-09-30T23:07:11.600Z,12.54
2022-09-30T23:09:15.177Z,12.48
2022-09-30T23:11:19.654Z,12.50
2022-09-30T23:13:26.087Z,12.48
2022-09-30T23:15:29.394Z,12.51
2022-09-30T23:17:33.080Z,12.49
2022-09-30T23:19:36.429Z,12.42
2022-09-30T23:21:40.716Z,12.46
2022-09-30T23:23:44.227Z,12.43
2022-09-30T23:25:47.628Z,12.52
2022-09-30T23:27:50.978Z,12.52
2022-09-30T23:29:55.933Z,12.50
2022-09-30T23:31:59.292Z,12.40
2022-09-30T23:34:04.216Z,12.52
2022-09-30T23:36:08.462Z,12.45
2022-09-30T23:38:11.788Z,12.56
2022-09-30T23:40:15.855Z,12.59
2022-09-30T23:42:20.137Z,12.55
2022-09-30T23:44:25.004Z,12.55
2022-09-30T23:46:29.671Z,12.53
2022-09-30T23:48:34.206Z,12.43
2022-09-30T23:50:37.488Z,12.61
2022-09-30T23:52:40.815Z,12.66
2022-09-30T23:54:44.352Z,12.58
2022-09-30T23:56:49.378Z,12.58
2022-09-30T23:58:52.649Z,12.62
